Kit Carson, CO

8:16 AM MST on December 11, 2016 (GMT -0700)
| | Change Station

Elev -9999 ft 0.00 °N, 0.00 °E | Updated 0 second ago

Overcast
Overcast
°F
Feels Like °F
N
Wind Variable Wind from North
Gusts mph

Today
High -- | Low -- °F
--% Chance of Precip.
Yesterday
High -- | Low -- °F
Precip. -- in
Pressure 29.92 in
Visibility 10.0 miles
Clouds Mostly Cloudy 8500 ft
Overcast 11000 ft
Dew Point Not available.
Humidity Not available.
Rainfall --
Snow Depth Not available.
6:59 AM 4:29 PM
Waxing Gibbous, 92% visible
METAR KITR 111453Z AUTO 35008KT 10SM BKN085 OVC110 M01/M05 A2986 RMK AO2 SLP130 T10061050 53029
Pressure 29.92 in
Visibility 10.0 miles
Clouds Mostly Cloudy 8500 ft
Overcast 11000 ft
Dew Point Not available.
Humidity Not available.
Rainfall --
Snow Depth Not available.
6:59 AM 4:29 PM
Waxing Gibbous, 92% visible
METAR KITR 111453Z AUTO 35008KT 10SM BKN085 OVC110 M01/M05 A2986 RMK AO2 SLP130 T10061050 53029

10-Day Weather Forecast

Almanac

Astronomy

Dec. 11, 2016 Rise Set
Actual Time
Civil Twilight
Nautical Twilight
Astronomical Twilight
Moon
Length of Visible Light
Length of Day
Tomorrow will be .
, % of the Moon is Illuminated

Today's Extremes

State Highs State Lows

Community

WunderPhotos

Upload Photos

1,956,725 photos uploaded!

WunderBlog® & News

Nearby

Air Quality

  Air Quality AQ Index Pollutant
Not available.

Snow Depth

Station Depth Elevation

Earthquake Activity

City Distance Mag. Time & Date
Minimum magnitude displayed is 2.5.

Coastal Water Temperatures

Place Temperature

Stations

Nearby Weather Stations

Station Location Temp. Windchill Dew Point Humidity Wind Precip. Elev Updated Type
                   

Watches & Warnings

There are currently no watches in effect.